Time;durP1;ratioP1;P1;durP2;ratioP2;P2;SDS_P1;SDS_P2;PMS_P1;PMS_P2;Temp;Humidity;BMP_temperature;BMP_pressure;BME280_temperature;BME280_humidity;BME280_pressure;Samples;Min_cycle;Max_cycle;Signal;HPM_P1;HPM_P2
2023/05/09 00:00:32;;;;;;;69.97;66.05;;;;;;;23.74;47.73;101656.22;5111057;28;20034;-73
2023/05/09 00:02:57;;;;;;;67.25;63.42;;;;;;;23.72;47.80;101653.78;5103022;28;20040;-70
2023/05/09 00:05:23;;;;;;;65.82;61.90;;;;;;;23.69;47.49;101651.59;5101465;28;20052;-72
2023/05/09 00:07:48;;;;;;;65.85;61.95;;;;;;;23.67;47.64;101651.09;5090556;28;20121;-74
2023/05/09 00:10:14;;;;;;;68.90;64.70;;;;;;;23.65;47.72;101642.31;5098522;28;20057;-72
2023/05/09 00:12:42;;;;;;;66.60;62.60;;;;;;;23.64;47.53;101631.59;5103459;28;20123;-73
2023/05/09 00:15:08;;;;;;;69.15;64.97;;;;;;;23.62;48.02;101640.19;5106782;28;20036;-72
2023/05/09 00:17:35;;;;;;;67.40;63.45;;;;;;;23.62;47.75;101650.41;5092508;28;20039;-71
2023/05/09 00:20:04;;;;;;;65.82;62.20;;;;;;;23.58;47.97;101647.44;5095828;28;20036;-75
2023/05/09 00:22:29;;;;;;;66.25;62.50;;;;;;;23.58;47.52;101643.84;5112100;28;20051;-73
2023/05/09 00:24:55;;;;;;;68.60;64.82;;;;;;;23.56;47.85;101635.88;5114733;28;20043;-72
2023/05/09 00:27:20;;;;;;;65.50;61.70;;;;;;;23.54;47.50;101638.16;5114330;28;20035;-79
2023/05/09 00:29:45;;;;;;;67.55;63.45;;;;;;;23.54;48.00;101627.13;5108199;28;20499;-72
2023/05/09 00:32:11;;;;;;;65.45;61.50;;;;;;;23.51;47.86;101616.69;5113124;28;20036;-73
2023/05/09 00:34:36;;;;;;;69.25;65.57;;;;;;;23.49;47.43;101621.72;5109526;28;20048;-73
2023/05/09 00:37:02;;;;;;;64.70;61.05;;;;;;;23.47;47.84;101619.25;5094905;28;20063;-71
2023/05/09 00:39:27;;;;;;;66.63;62.92;;;;;;;23.44;47.50;101613.56;5099888;28;20074;-72
2023/05/09 00:41:55;;;;;;;65.43;61.72;;;;;;;23.43;47.70;101618.22;5099207;28;20089;-75
2023/05/09 00:44:21;;;;;;;61.63;58.33;;;;;;;23.41;47.58;101612.25;5094981;28;20467;-73
2023/05/09 00:46:46;;;;;;;64.32;60.63;;;;;;;23.41;47.69;101611.41;5094092;28;20032;-71
2023/05/09 00:49:12;;;;;;;62.63;59.20;;;;;;;23.40;47.94;101610.59;5093722;28;20186;-73
2023/05/09 00:51:39;;;;;;;63.40;59.78;;;;;;;23.37;47.55;101600.19;5103446;28;20039;-70
2023/05/09 00:54:05;;;;;;;63.80;60.30;;;;;;;23.36;47.60;101589.44;5102444;28;20036;-72
2023/05/09 00:56:30;;;;;;;63.95;60.13;;;;;;;23.33;47.56;101590.88;5111150;28;20070;-70
2023/05/09 00:58:56;;;;;;;63.58;60.00;;;;;;;23.33;47.38;101591.72;5113743;28;20639;-72
2023/05/09 01:01:21;;;;;;;63.58;59.50;;;;;;;23.29;47.87;101581.63;5102185;28;20028;-72
2023/05/09 01:03:49;;;;;;;63.92;60.38;;;;;;;23.27;47.88;101579.16;5107193;28;20114;-72
2023/05/09 01:07:10;;;;;;;62.80;59.28;;;;;;;23.28;47.95;101575.28;5114502;28;20038;-74
2023/05/09 01:09:42;;;;;;;61.33;57.95;;;;;;;23.23;48.02;101575.38;5051483;28;20036;-78
2023/05/09 01:12:25;;;;;;;65.88;62.15;;;;;;;23.20;47.79;101569.69;5098305;28;20026;-76
2023/05/09 01:15:03;;;;;;;61.75;58.15;;;;;;;23.16;47.51;101555.72;5113994;28;20060;-75
2023/05/09 01:17:35;;;;;;;60.97;57.47;;;;;;;23.16;47.72;101560.38;5109872;28;20265;-72
2023/05/09 01:20:26;;;;;;;61.17;57.60;;;;;;;23.15;47.97;101554.06;5093406;28;20020;-73
2023/05/09 01:23:03;;;;;;;63.75;60.05;;;;;;;23.10;48.02;101551.41;5111250;28;20034;-71
2023/05/09 01:25:50;;;;;;;63.38;59.85;;;;;;;23.09;47.82;101549.78;5108970;28;20024;-72
2023/05/09 01:28:21;;;;;;;62.15;58.70;;;;;;;23.08;47.92;101550.91;5105476;28;20033;-70
2023/05/09 01:30:50;;;;;;;63.03;59.63;;;;;;;23.05;47.59;101540.50;5092232;28;20028;-71
2023/05/09 01:33:18;;;;;;;63.90;60.60;;;;;;;23.03;47.99;101538.06;5109529;28;20036;-71
2023/05/09 01:35:53;;;;;;;62.13;58.67;;;;;;;23.01;47.99;101531.22;5111233;28;20514;-71
2023/05/09 01:38:22;;;;;;;59.78;56.47;;;;;;;22.99;47.96;101533.47;5113705;28;20024;-73
2023/05/09 01:40:51;;;;;;;62.05;58.58;;;;;;;22.99;47.62;101533.47;5112966;28;20024;-75
2023/05/09 01:43:18;;;;;;;62.03;58.60;;;;;;;22.96;47.82;101531.31;5098937;28;20395;-73
2023/05/09 01:45:46;;;;;;;61.90;58.45;;;;;;;22.95;47.86;101527.72;5095671;28;20070;-73
2023/05/09 01:48:13;;;;;;;63.30;59.63;;;;;;;22.94;47.75;101525.28;5113409;28;20028;-73
2023/05/09 01:50:40;;;;;;;62.72;59.00;;;;;;;22.92;47.47;101524.78;5118239;27;20065;-71
2023/05/09 01:53:05;;;;;;;60.85;57.28;;;;;;;22.91;47.57;101526.72;5113493;27;20023;-70
2023/05/09 01:55:34;;;;;;;62.15;58.83;;;;;;;22.88;47.73;101519.88;5093534;28;20036;-73
2023/05/09 01:58:03;;;;;;;62.47;58.85;;;;;;;22.88;47.63;101510.78;5093110;28;20040;-73
2023/05/09 02:00:31;;;;;;;62.60;59.00;;;;;;;22.86;47.55;101519.38;5093214;28;20039;-72
2023/05/09 02:02:57;;;;;;;62.22;58.72;;;;;;;22.84;47.76;101509.78;5097231;28;20036;-72
2023/05/09 02:05:27;;;;;;;63.45;59.88;;;;;;;22.83;47.79;101519.16;5093020;28;22379;-71
2023/05/09 02:07:56;;;;;;;62.45;58.95;;;;;;;22.81;47.94;101511.22;5091537;28;20073;-73
2023/05/09 02:10:24;;;;;;;64.45;60.97;;;;;;;22.80;47.58;101514.25;5098650;28;20043;-71
2023/05/09 02:12:50;;;;;;;61.75;58.38;;;;;;;22.79;47.82;101518.16;5096540;28;20368;-75
2023/05/09 02:15:15;;;;;;;60.42;56.60;;;;;;;22.77;48.02;101518.44;5096942;28;20533;-72
2023/05/09 02:17:41;;;;;;;59.92;56.72;;;;;;;22.76;47.59;101527.03;5092928;28;20039;-73
2023/05/09 02:20:08;;;;;;;62.78;59.38;;;;;;;22.73;47.53;101517.44;5092362;28;20040;-74
2023/05/09 02:22:35;;;;;;;64.35;60.85;;;;;;;22.72;47.65;101515.78;5092978;28;20032;-71
2023/05/09 02:25:03;;;;;;;61.72;58.08;;;;;;;22.71;47.51;101519.69;5093469;28;20118;-71
2023/05/09 02:27:31;;;;;;;65.15;61.45;;;;;;;22.71;47.51;101516.13;5092997;28;20032;-72
2023/05/09 02:30:00;;;;;;;62.70;59.03;;;;;;;22.69;47.93;101510.91;5102584;28;20040;-75
2023/05/09 02:32:29;;;;;;;59.38;56.15;;;;;;;22.66;47.70;101514.28;5098297;28;20338;-74
2023/05/09 02:34:57;;;;;;;63.97;60.30;;;;;;;22.65;47.41;101509.88;5102795;28;20047;-72
2023/05/09 02:37:23;;;;;;;59.77;56.50;;;;;;;22.64;47.76;101508.25;5092770;28;20020;-74
2023/05/09 02:39:48;;;;;;;61.60;58.08;;;;;;;22.62;47.85;101497.53;5099209;28;20035;-75
2023/05/09 02:42:24;;;;;;;60.10;56.72;;;;;;;22.61;48.14;101495.09;5112611;28;20035;-71
2023/05/09 02:44:50;;;;;;;62.50;58.97;;;;;;;22.59;48.11;101489.06;5109585;28;20467;-75
2023/05/09 02:47:15;;;;;;;60.97;57.42;;;;;;;22.57;48.13;101486.63;5107505;28;20387;-72
2023/05/09 02:49:41;;;;;;;59.13;55.63;;;;;;;22.56;47.83;101481.44;5098263;28;20032;-73
2023/05/09 02:52:06;;;;;;;61.90;58.38;;;;;;;22.56;47.75;101489.69;5091686;28;20078;-75
2023/05/09 02:54:32;;;;;;;60.90;57.40;;;;;;;22.53;47.71;101477.34;5092648;28;20349;-75
2023/05/09 02:56:58;;;;;;;61.85;58.17;;;;;;;22.52;47.68;101477.66;5097084;28;20403;-72
2023/05/09 02:59:23;;;;;;;60.35;56.53;;;;;;;22.51;47.65;101471.34;5101595;28;20120;-74
2023/05/09 03:01:49;;;;;;;61.25;57.85;;;;;;;22.50;48.10;101468.88;5098113;28;20138;-80
2023/05/09 03:04:15;;;;;;;59.10;55.70;;;;;;;22.47;47.91;101460.09;5109958;28;20043;-72
2023/05/09 03:06:40;;;;;;;58.88;55.15;;;;;;;22.47;47.68;101464.78;5093785;28;20044;-74
2023/05/09 03:09:06;;;;;;;61.47;57.85;;;;;;;22.44;47.77;101451.66;5107970;28;20035;-73
2023/05/09 03:11:31;;;;;;;58.67;55.42;;;;;;;22.43;47.79;101448.09;5111980;28;20039;-75
2023/05/09 03:13:57;;;;;;;57.65;54.35;;;;;;;22.41;47.70;101449.50;5109854;28;20043;-71
2023/05/09 03:16:22;;;;;;;58.88;55.50;;;;;;;22.40;47.78;101447.88;5110031;28;20032;-71
2023/05/09 03:18:47;;;;;;;58.08;54.45;;;;;;;22.38;48.16;101445.44;5094760;28;20032;-74
2023/05/09 03:21:13;;;;;;;57.97;54.72;;;;;;;22.37;48.05;101454.78;5091276;28;20459;-72
2023/05/09 03:23:38;;;;;;;57.83;54.28;;;;;;;22.36;48.12;101450.41;5106909;28;20047;-74
2023/05/09 03:26:04;;;;;;;58.38;54.97;;;;;;;22.35;47.94;101446.06;5091667;28;20112;-70
2023/05/09 03:28:30;;;;;;;57.30;53.90;;;;;;;22.33;47.98;101448.28;5108215;28;20068;-71
2023/05/09 03:30:55;;;;;;;58.33;54.95;;;;;;;22.31;47.85;101436.75;5091296;28;20495;-72
2023/05/09 03:33:21;;;;;;;57.33;54.08;;;;;;;22.30;48.07;101431.56;5091862;28;20371;-72
2023/05/09 03:35:46;;;;;;;61.65;57.67;;;;;;;22.29;48.14;101436.25;5091586;28;20139;-72
2023/05/09 03:38:11;;;;;;;62.95;59.08;;;;;;;22.28;48.23;101437.38;5094414;28;20115;-75
2023/05/09 03:40:37;;;;;;;57.13;53.90;;;;;;;22.26;48.18;101439.63;5099094;28;20036;-73
2023/05/09 03:43:02;;;;;;;61.55;57.83;;;;;;;22.24;47.88;101436.34;5110305;28;20028;-74
2023/05/09 03:45:28;;;;;;;59.50;55.92;;;;;;;22.23;47.74;101430.03;5110796;28;20028;-71
2023/05/09 03:47:53;;;;;;;57.88;54.35;;;;;;;22.21;48.12;101426.75;5102713;28;20032;-80
2023/05/09 03:50:18;;;;;;;57.95;54.65;;;;;;;22.21;47.84;101423.19;5100151;28;20088;-72
2023/05/09 03:52:44;;;;;;;57.17;53.90;;;;;;;22.19;48.26;101418.00;5091380;28;20031;-70
2023/05/09 03:55:09;;;;;;;59.17;55.70;;;;;;;22.18;48.09;101423.78;5090513;28;20040;-75
2023/05/09 03:57:35;;;;;;;60.47;56.83;;;;;;;22.17;48.05;101420.19;5090807;28;20912;-73
2023/05/09 04:00:01;;;;;;;59.63;56.08;;;;;;;22.16;47.99;101417.78;5100367;28;20031;-71
2023/05/09 04:02:26;;;;;;;57.90;54.80;;;;;;;22.13;47.98;101413.69;5093336;28;20480;-71
2023/05/09 04:04:52;;;;;;;58.60;55.20;;;;;;;22.11;48.42;101415.13;5091221;28;20028;-72
2023/05/09 04:07:19;;;;;;;57.10;54.00;;;;;;;22.10;48.16;101410.72;5090780;28;20073;-73
2023/05/09 04:09:45;;;;;;;56.25;53.03;;;;;;;22.07;47.96;101409.38;5106106;28;20537;-72
2023/05/09 04:12:10;;;;;;;58.83;55.38;;;;;;;22.07;47.88;101409.38;5090623;28;20060;-70
2023/05/09 04:14:35;;;;;;;60.40;56.78;;;;;;;22.07;47.89;101405.81;5110948;28;20057;-74
2023/05/09 04:17:01;;;;;;;59.15;55.67;;;;;;;22.04;47.80;101410.00;5107672;28;20038;-73
2023/05/09 04:19:26;;;;;;;56.58;53.30;;;;;;;22.03;48.24;101406.44;5092879;28;20383;-74
2023/05/09 04:21:52;;;;;;;58.78;54.88;;;;;;;22.01;48.21;101394.91;5100319;28;20115;-73
2023/05/09 04:24:17;;;;;;;56.53;53.22;;;;;;;21.98;47.91;101392.78;5099398;28;20057;-70
2023/05/09 04:26:43;;;;;;;55.58;52.30;;;;;;;21.99;48.40;101404.59;5101871;28;20144;-76
2023/05/09 04:29:08;;;;;;;56.05;52.90;;;;;;;21.97;48.43;101393.06;5091972;28;20029;-73
2023/05/09 04:31:34;;;;;;;55.15;52.05;;;;;;;21.96;48.04;101388.69;5100521;28;20036;-70
2023/05/09 04:34:00;;;;;;;54.85;51.58;;;;;;;21.93;47.96;101384.63;5098142;28;20395;-73
2023/05/09 04:36:26;;;;;;;54.42;51.30;;;;;;;21.93;48.51;101381.06;5091265;28;20058;-73
2023/05/09 04:38:52;;;;;;;55.53;52.42;;;;;;;21.91;48.27;101381.34;5090992;28;20035;-71
2023/05/09 04:41:17;;;;;;;58.80;55.22;;;;;;;21.90;48.53;101382.50;5093201;28;20028;-74
2023/05/09 04:43:43;;;;;;;54.30;51.00;;;;;;;21.90;48.08;101382.50;5091321;28;20043;-72
2023/05/09 04:46:08;;;;;;;57.10;53.80;;;;;;;21.89;48.52;101380.03;5092662;28;20035;-71
2023/05/09 04:48:36;;;;;;;55.95;52.53;;;;;;;21.87;48.13;101380.31;5110882;28;20127;-72
2023/05/09 04:51:02;;;;;;;57.97;54.42;;;;;;;21.87;48.01;101379.50;5107945;28;20032;-73
2023/05/09 04:53:28;;;;;;;55.17;51.88;;;;;;;21.86;48.58;101367.69;5109790;28;20035;-70
2023/05/09 04:55:53;;;;;;;53.72;50.53;;;;;;;21.83;48.14;101360.88;5105701;28;20028;-72
2023/05/09 04:58:19;;;;;;;55.15;51.88;;;;;;;21.82;48.09;101355.66;5090293;28;20040;-73
2023/05/09 05:00:45;;;;;;;53.85;50.83;;;;;;;21.82;48.03;101341.91;5090570;28;20067;-72
2023/05/09 05:03:11;;;;;;;55.25;52.05;;;;;;;21.80;48.01;101349.69;5090549;28;20483;-71
2023/05/09 05:05:36;;;;;;;54.42;51.42;;;;;;;21.79;48.28;101348.03;5104066;28;20046;-71
2023/05/09 05:08:02;;;;;;;57.13;54.03;;;;;;;21.79;48.02;101357.09;5111271;28;20028;-81
2023/05/09 05:10:29;;;;;;;54.50;51.15;;;;;;;21.77;48.19;101347.50;5111675;28;20043;-73
2023/05/09 05:12:54;;;;;;;55.83;52.65;;;;;;;21.76;48.39;101349.44;5107644;28;20031;-73
2023/05/09 05:15:20;;;;;;;54.92;51.75;;;;;;;21.75;48.54;101341.53;5101065;28;20132;-72
2023/05/09 05:17:45;;;;;;;53.97;51.05;;;;;;;21.74;48.28;101335.19;5094504;28;20046;-76
2023/05/09 05:20:10;;;;;;;54.75;51.35;;;;;;;21.73;48.27;101333.56;5107104;28;20110;-71
2023/05/09 05:22:36;;;;;;;54.13;51.17;;;;;;;21.72;48.17;101328.34;5100809;28;20115;-75
2023/05/09 05:25:04;;;;;;;55.45;52.28;;;;;;;21.71;48.30;101327.56;5113471;28;20031;-82
2023/05/09 05:27:30;;;;;;;52.95;49.95;;;;;;;21.70;48.57;101323.19;5107496;27;20032;-72
2023/05/09 05:29:55;;;;;;;55.50;51.92;;;;;;;21.70;48.53;101319.63;5110935;28;20373;-71
2023/05/09 05:32:21;;;;;;;54.72;51.70;;;;;;;21.69;48.12;101324.28;5093585;28;20028;-74
2023/05/09 05:34:46;;;;;;;53.95;50.97;;;;;;;21.68;48.32;101319.09;5099921;28;20052;-72
2023/05/09 05:37:11;;;;;;;53.33;50.22;;;;;;;21.66;48.19;101322.16;5093447;28;20475;-73
2023/05/09 05:39:37;;;;;;;55.03;51.85;;;;;;;21.66;48.22;101316.66;5093996;28;20036;-72
2023/05/09 05:42:02;;;;;;;52.75;49.55;;;;;;;21.65;48.35;101316.97;5093379;28;20101;-83
2023/05/09 05:44:28;;;;;;;54.97;51.92;;;;;;;21.63;48.63;101311.75;5101231;28;20031;-71
2023/05/09 05:46:53;;;;;;;53.53;50.53;;;;;;;21.63;48.54;101311.75;5107239;28;20025;-71
2023/05/09 05:49:18;;;;;;;56.90;53.60;;;;;;;21.63;48.80;101310.97;5097651;28;20141;-71
2023/05/09 05:51:44;;;;;;;55.15;51.83;;;;;;;21.62;48.67;101312.91;5113684;28;20489;-76
2023/05/09 05:54:09;;;;;;;53.47;50.40;;;;;;;21.61;48.60;101311.25;5109029;28;20123;-75
2023/05/09 05:56:35;;;;;;;54.05;50.95;;;;;;;21.60;48.18;101307.69;5097009;28;20395;-72
2023/05/09 05:59:00;;;;;;;52.42;49.42;;;;;;;21.60;48.38;101306.88;5099960;28;20039;-71
2023/05/09 06:01:26;;;;;;;53.60;50.40;;;;;;;21.59;48.82;101300.53;5092978;28;20063;-78
2023/05/09 06:03:53;;;;;;;53.55;50.03;;;;;;;21.56;48.96;101295.66;5095896;28;20090;-74
2023/05/09 06:06:23;;;;;;;53.63;50.53;;;;;;;21.56;48.59;101300.34;5102634;28;20043;-77
2023/05/09 06:08:48;;;;;;;53.15;49.63;;;;;;;21.56;48.93;101297.59;5093315;28;20032;-74
2023/05/09 06:11:15;;;;;;;55.88;52.67;;;;;;;21.55;48.93;101294.03;5092635;28;20464;-72
2023/05/09 06:13:40;;;;;;;54.50;51.35;;;;;;;21.54;49.03;101295.13;5094281;28;20046;-71
2023/05/09 06:16:07;;;;;;;54.72;51.42;;;;;;;21.55;48.94;101284.97;5104903;28;20043;-77
2023/05/09 06:18:38;;;;;;;56.65;53.30;;;;;;;21.53;48.60;101293.53;5105138;28;20031;-71
2023/05/09 06:21:04;;;;;;;55.88;52.67;;;;;;;21.52;48.93;101291.06;5112536;28;20368;-73
2023/05/09 06:23:29;;;;;;;54.85;51.35;;;;;;;21.51;48.74;101289.44;5092876;28;20046;-71
2023/05/09 06:25:55;;;;;;;55.47;52.17;;;;;;;21.52;48.51;101291.06;5105413;28;20036;-80
2023/05/09 06:28:20;;;;;;;53.97;50.78;;;;;;;21.49;48.58;101286.19;5112392;28;20550;-74
2023/05/09 06:30:46;;;;;;;56.10;52.58;;;;;;;21.48;49.09;101282.63;5111681;28;20039;-76
2023/05/09 06:33:11;;;;;;;52.33;49.03;;;;;;;21.48;48.64;101285.38;5093513;28;20039;-73
2023/05/09 06:35:36;;;;;;;54.38;51.13;;;;;;;21.47;49.27;101286.50;5093047;28;20044;-72
2023/05/09 06:38:02;;;;;;;52.83;49.70;;;;;;;21.46;48.95;101282.09;5096521;28;20411;-71
2023/05/09 06:40:27;;;;;;;55.33;52.22;;;;;;;21.46;48.69;101290.34;5092510;28;20384;-75
2023/05/09 06:42:53;;;;;;;51.70;48.72;;;;;;;21.44;48.94;101281.59;5109206;28;20119;-72
2023/05/09 06:45:18;;;;;;;55.88;52.65;;;;;;;21.44;48.83;101276.09;5099491;28;20357;-70
2023/05/09 06:47:43;;;;;;;54.83;51.45;;;;;;;21.44;49.04;101275.28;5105315;28;20042;-74
2023/05/09 06:50:09;;;;;;;54.90;51.65;;;;;;;21.42;48.96;101272.84;5096162;28;20039;-74
2023/05/09 06:52:34;;;;;;;52.03;49.08;;;;;;;21.43;48.92;101273.66;5101948;28;20031;-73
2023/05/09 06:55:00;;;;;;;52.58;49.40;;;;;;;21.41;49.28;101271.22;5112782;28;20066;-75
2023/05/09 06:57:25;;;;;;;54.17;50.80;;;;;;;21.38;49.31;101266.28;5104771;28;20039;-74
2023/05/09 06:59:51;;;;;;;52.47;49.58;;;;;;;21.37;48.87;101262.72;5100765;28;20031;-74
2023/05/09 07:02:16;;;;;;;52.53;49.60;;;;;;;21.39;49.40;101265.19;5112057;28;20031;-74
2023/05/09 07:04:42;;;;;;;52.00;49.22;;;;;;;21.38;49.35;101260.78;5105026;28;20024;-72
2023/05/09 07:07:07;;;;;;;54.28;50.83;;;;;;;21.36;48.88;101261.09;5092577;28;20028;-79
2023/05/09 07:09:33;;;;;;;53.47;50.70;;;;;;;21.35;49.34;101253.16;5099327;28;20384;-72
2023/05/09 07:12:01;;;;;;;51.47;48.58;;;;;;;21.36;49.21;101263.03;5109409;28;20032;-72
2023/05/09 07:14:26;;;;;;;52.35;49.38;;;;;;;21.34;49.12;101248.78;5101696;28;20043;-74
2023/05/09 07:16:52;;;;;;;52.33;49.33;;;;;;;21.35;49.45;101253.16;5092227;28;22132;-77
2023/05/09 07:19:17;;;;;;;54.97;51.60;;;;;;;21.35;49.43;101247.66;5092914;28;20063;-71
2023/05/09 07:21:43;;;;;;;51.30;48.40;;;;;;;21.32;49.03;101243.59;5106064;28;20035;-80
2023/05/09 07:24:08;;;;;;;51.53;48.83;;;;;;;21.34;48.89;101238.63;5109323;28;20036;-73
2023/05/09 07:26:35;;;;;;;50.95;48.08;;;;;;;21.32;49.19;101240.84;5103511;28;20037;-73
2023/05/09 07:29:00;;;;;;;49.83;46.97;;;;;;;21.31;49.28;101232.91;5107568;28;20043;-72
2023/05/09 07:31:25;;;;;;;52.30;49.42;;;;;;;21.31;49.52;101232.91;5090955;28;20027;-72
2023/05/09 07:33:51;;;;;;;51.67;48.85;;;;;;;21.31;49.06;101230.16;5092837;28;20059;-71
2023/05/09 07:36:16;;;;;;;50.53;47.70;;;;;;;21.30;49.54;101231.28;5092027;28;20028;-72
2023/05/09 07:38:42;;;;;;;50.97;48.13;;;;;;;21.29;49.14;101235.97;5104555;28;20039;-71
2023/05/09 07:41:07;;;;;;;51.45;48.15;;;;;;;21.30;49.21;101231.28;5092376;28;20036;-73
2023/05/09 07:43:33;;;;;;;55.53;52.42;;;;;;;21.30;49.67;101223.84;5091802;28;20031;-74
2023/05/09 07:45:59;;;;;;;51.42;48.45;;;;;;;21.29;49.32;101226.88;5111628;28;20032;-73
2023/05/09 07:48:25;;;;;;;51.63;48.72;;;;;;;21.30;49.39;101221.09;5106416;28;20066;-71
2023/05/09 07:50:50;;;;;;;51.75;48.92;;;;;;;21.27;49.33;101212.63;5098452;28;20036;-73
2023/05/09 07:53:16;;;;;;;50.55;47.67;;;;;;;21.29;49.43;101210.41;5099489;28;20365;-71
2023/05/09 07:55:43;;;;;;;51.72;48.88;;;;;;;21.27;49.36;101207.97;5105043;28;20028;-71
2023/05/09 07:58:09;;;;;;;52.17;49.17;;;;;;;21.29;49.55;101207.66;5093698;28;20040;-72
2023/05/09 08:00:34;;;;;;;51.22;47.95;;;;;;;21.28;49.06;101204.09;5096210;28;20084;-70
2023/05/09 08:03:00;;;;;;;48.97;46.05;;;;;;;21.27;49.43;101201.63;5099972;28;20031;-75
2023/05/09 08:05:25;;;;;;;50.42;47.47;;;;;;;21.27;49.68;101188.75;5092748;28;20495;-71
2023/05/09 08:07:51;;;;;;;50.28;47.67;;;;;;;21.27;49.28;101188.75;5091940;28;20499;-76
2023/05/09 08:10:16;;;;;;;49.22;46.53;;;;;;;21.26;49.18;101183.53;5097826;28;20480;-79
2023/05/09 08:12:42;;;;;;;48.97;46.25;;;;;;;21.24;49.63;101183.00;5110909;28;20043;-74
2023/05/09 08:15:08;;;;;;;48.33;45.72;;;;;;;21.25;49.76;101181.91;5111526;28;20031;-75
2023/05/09 08:17:33;;;;;;;53.67;50.70;;;;;;;21.26;49.54;101181.59;5110235;28;20039;-76
2023/05/09 08:19:59;;;;;;;50.28;47.30;;;;;;;21.22;50.33;101168.75;5108035;28;20030;-71
2023/05/09 08:22:24;;;;;;;51.88;48.97;;;;;;;21.20;49.93;101171.03;5110919;28;20040;-71
2023/05/09 08:24:50;;;;;;;49.10;46.60;;;;;;;21.21;50.38;101176.19;5099117;28;20634;-71
2023/05/09 08:27:15;;;;;;;49.25;46.58;;;;;;;21.23;50.55;101167.66;5098174;28;20076;-72
2023/05/09 08:29:42;;;;;;;48.95;46.25;;;;;;;21.22;50.30;101166.84;5107160;28;20065;-79
2023/05/09 08:32:08;;;;;;;48.08;45.42;;;;;;;21.19;50.50;101156.44;5110700;28;20035;-70
2023/05/09 08:34:34;;;;;;;47.33;44.72;;;;;;;21.18;50.71;101160.31;5110545;28;20036;-72
2023/05/09 08:37:00;;;;;;;49.50;46.90;;;;;;;21.20;50.87;101160.84;5110689;28;20084;-72
2023/05/09 08:39:26;;;;;;;49.60;46.60;;;;;;;21.20;50.29;101152.59;5105758;28;20036;-73
2023/05/09 08:41:56;;;;;;;51.72;49.03;;;;;;;21.21;50.92;101156.16;5095916;28;20472;-71
2023/05/09 08:44:23;;;;;;;48.83;46.22;;;;;;;21.21;50.69;101147.91;5093780;28;20020;-72
2023/05/09 08:47:09;;;;;;;49.25;46.38;;;;;;;21.20;50.62;101155.34;5102159;28;20077;-73
2023/05/09 08:49:34;;;;;;;54.13;51.33;;;;;;;21.20;50.07;101144.38;5108566;28;20032;-82
2023/05/09 08:52:00;;;;;;;47.78;45.25;;;;;;;21.19;50.32;101142.72;5094562;28;20032;-72
2023/05/09 08:54:26;;;;;;;50.03;47.33;;;;;;;21.18;50.90;101136.41;5103425;28;20119;-74
2023/05/09 08:56:52;;;;;;;48.70;46.10;;;;;;;21.18;50.77;101135.59;5105138;28;20032;-72
2023/05/09 08:59:18;;;;;;;47.53;45.03;;;;;;;21.20;50.77;101135.31;5094203;28;20036;-71
2023/05/09 09:01:44;;;;;;;51.40;48.70;;;;;;;21.21;50.39;101124.00;5095824;28;20034;-71
2023/05/09 09:04:12;;;;;;;50.20;47.58;;;;;;;21.21;50.44;101129.50;5110862;28;20529;-73
2023/05/09 09:06:39;;;;;;;51.63;48.85;;;;;;;21.22;50.58;101119.31;5104208;28;20042;-73
2023/05/09 09:09:07;;;;;;;46.88;44.35;;;;;;;21.21;50.68;101123.19;5113686;28;20059;-74
2023/05/09 09:11:34;;;;;;;50.67;47.60;;;;;;;21.21;50.35;101128.69;5110009;28;20032;-71
2023/05/09 09:14:04;;;;;;;50.58;47.97;;;;;;;21.18;50.40;101121.88;5102697;28;20434;-73
2023/05/09 09:16:31;;;;;;;51.42;48.53;;;;;;;21.20;50.37;101114.13;5114122;27;20367;-73
2023/05/09 09:18:57;;;;;;;49.13;46.13;;;;;;;21.19;50.67;101120.75;5107830;27;20038;-74
2023/05/09 09:21:23;;;;;;;47.78;45.13;;;;;;;21.18;50.20;101119.94;5099527;28;20050;-71
2023/05/09 09:23:50;;;;;;;51.20;48.40;;;;;;;21.20;50.81;101114.13;5107560;27;20043;-72
2023/05/09 09:26:16;;;;;;;50.05;47.35;;;;;;;21.16;50.92;101115.84;5113399;27;20024;-71
2023/05/09 09:28:41;;;;;;;49.58;46.88;;;;;;;21.16;50.55;101111.19;5094327;28;20040;-72
2023/05/09 09:31:23;;;;;;;48.85;46.25;;;;;;;21.20;50.33;101105.91;5101936;27;20055;-76
2023/05/09 09:33:48;;;;;;;50.28;47.53;;;;;;;21.19;50.50;101107.00;5100924;28;20036;-73
2023/05/09 09:36:14;;;;;;;48.63;45.80;;;;;;;21.21;50.82;101102.03;5107120;27;20066;-72
2023/05/09 09:38:42;;;;;;;51.65;48.63;;;;;;;21.21;50.48;101102.03;5093278;28;20446;-75
2023/05/09 09:41:10;;;;;;;48.55;45.90;;;;;;;21.20;50.57;101100.41;5108903;28;20047;-71
2023/05/09 09:43:35;;;;;;;50.20;47.50;;;;;;;21.20;50.35;101094.91;5095142;27;20058;-76
2023/05/09 09:46:02;;;;;;;49.28;46.67;;;;;;;21.23;50.35;101101.72;5106989;28;20479;-72
2023/05/09 09:48:32;;;;;;;49.50;46.97;;;;;;;21.22;50.61;101100.09;5101370;28;20032;-76
2023/05/09 09:51:09;;;;;;;47.72;45.22;;;;;;;21.21;51.06;101096.53;5108914;28;20032;-72
2023/05/09 09:53:39;;;;;;;48.72;46.08;;;;;;;21.22;50.97;101089.09;5098115;28;20031;-82
2023/05/09 09:56:05;;;;;;;46.83;44.42;;;;;;;21.21;50.75;101091.03;5110449;27;20394;-73
2023/05/09 09:58:30;;;;;;;50.42;47.78;;;;;;;21.23;50.47;101086.06;5096775;27;20028;-71
2023/05/09 10:01:07;;;;;;;48.78;45.78;;;;;;;21.20;51.01;101089.41;5096025;27;20545;-70
2023/05/09 10:03:40;;;;;;;52.00;49.03;;;;;;;21.20;50.63;101089.41;5124789;27;20118;-71
2023/05/09 10:06:10;;;;;;;49.03;46.42;;;;;;;21.21;50.63;101090.22;5101375;27;20028;-71
2023/05/09 10:08:36;;;;;;;48.80;46.10;;;;;;;21.21;50.77;101081.97;5101380;28;20031;-75
2023/05/09 10:11:01;;;;;;;48.83;46.22;;;;;;;21.21;51.07;101084.72;5112279;27;20032;-73
2023/05/09 10:13:27;;;;;;;48.33;45.70;;;;;;;21.22;50.88;101080.84;5109364;28;20490;-73
2023/05/09 10:15:54;;;;;;;49.72;47.13;;;;;;;21.23;51.02;101079.75;5108868;27;20145;-74
2023/05/09 10:18:26;;;;;;;49.45;46.85;;;;;;;21.22;50.68;101073.44;5092607;28;20361;-70
2023/05/09 10:20:52;;;;;;;51.10;48.30;;;;;;;21.24;50.65;101070.38;5095942;27;20035;-70
2023/05/09 10:23:19;;;;;;;48.88;46.28;;;;;;;21.22;51.14;101072.59;5106669;27;20438;-70
2023/05/09 10:26:12;;;;;;;50.10;47.25;;;;;;;21.24;50.91;101068.44;5096146;27;20487;-73
2023/05/09 10:28:40;;;;;;;53.28;50.05;;;;;;;21.22;51.20;101073.44;5110120;28;20040;-73
2023/05/09 10:31:13;;;;;;;46.05;43.80;;;;;;;21.19;50.80;101065.78;5105650;28;20034;-70
2023/05/09 10:34:00;;;;;;;51.08;48.30;;;;;;;21.23;50.67;101060.53;5097925;27;20119;-72
2023/05/09 10:36:27;;;;;;;48.67;46.03;;;;;;;21.20;51.01;101061.94;5105466;27;20345;-73
2023/05/09 10:38:55;;;;;;;50.42;47.72;;;;;;;21.18;51.03;101056.75;5131586;27;20047;-78
2023/05/09 10:41:21;;;;;;;51.08;48.28;;;;;;;21.21;51.31;101054.50;5100402;27;20066;-69
2023/05/09 10:43:47;;;;;;;50.25;47.55;;;;;;;21.20;50.77;101047.41;5105913;27;20455;-70
2023/05/09 10:46:13;;;;;;;49.38;46.80;;;;;;;21.20;51.04;101047.41;5110106;28;20040;-70
2023/05/09 10:48:40;;;;;;;50.08;47.40;;;;;;;21.21;51.03;101041.59;5109492;28;20506;-69
2023/05/09 10:51:07;;;;;;;47.75;45.35;;;;;;;21.21;50.87;101041.59;5092095;28;20028;-70
2023/05/09 10:53:59;;;;;;;47.95;45.45;;;;;;;21.22;51.04;101036.91;5104648;28;20126;-87
2023/05/09 10:56:32;;;;;;;49.08;46.47;;;;;;;21.22;51.33;101031.41;5106712;28;20043;-69
2023/05/09 10:58:58;;;;;;;46.95;44.63;;;;;;;21.20;51.24;101028.97;5112166;27;20081;-74
2023/05/09 11:01:42;;;;;;;48.67;45.92;;;;;;;21.18;50.92;101036.72;5099955;28;20119;-69
2023/05/09 11:04:09;;;;;;;46.03;43.75;;;;;;;21.15;51.06;101029.09;5099228;28;20027;-70
2023/05/09 11:06:47;;;;;;;49.22;46.72;;;;;;;21.14;51.06;101022.78;5099919;28;20038;-84
2023/05/09 11:09:27;;;;;;;49.35;46.75;;;;;;;21.13;51.71;101021.16;5110015;28;20027;-69